Etusivu
METAR-TAF:

METAR-TAF

Lentoasemat :

Epinal, Ranska

Leveyspiiri: 48-19-31N, Pituuspiiri: 6-04-00E, korkeus merenpinnasta: 330 m

Tämänhetkinen sää

Tämä raportti tehtiin 19 minuuttia sitten, kello 18.00 UTC
Tuuli 4 kn pohjoisen/luoteesta
Lämpötila 24°C
Kosteus 54%
Ilmanpaine 1019 hPa
Näkyvyys 10 km tai enemmän
ei pilviä alle 1500 m:ssä eikä cumulonimbus-pilviä

METAR: LFSG 151800Z AUTO 34004KT CAVOK 24/14 Q1019

Aika: 20:19 (18:19 UTC)


TAF: puuttuu

Säähavainnot ja -ennusteet yli 4000 lentoasemalta (METAR- ja TAF-raportit).

Käytössä olevat sääasemat on merkitty karttaan keltaisilla ja punaisilla pisteillä.

Aseta hiiri pisteen päälle nähdäksesi sääaseman nimen.

Klikkaa sitten nähdäksesi säähavainnot ja -ennusteet.

Kartan vaihtaminen: klikkaa mustalla rastilla varustettuja vihreitä pisteitä, niin voit zoomata sisään; viivalla varustettua vihreää pistettä, niin voit zoomata ulos tai vihreitä nuolia, niin pääset viereisille kartoille.


METAR-TAF: